createdAt,value
2019-01-19T00:00:43.210Z,36.70
2019-01-19T00:04:41.536Z,36.60
2019-01-19T00:08:06.894Z,36.60
2019-01-19T00:12:07.700Z,36.50
2019-01-19T00:15:23.316Z,36.50
2019-01-19T00:19:15.981Z,36.30
2019-01-19T00:22:50.607Z,36.40
2019-01-19T00:26:49.966Z,36.30
2019-01-19T00:30:43.967Z,36.20
2019-01-19T00:34:16.554Z,36.50
2019-01-19T00:37:38.102Z,36.50
2019-01-19T00:41:17.051Z,36.40
2019-01-19T00:44:56.277Z,36.40
2019-01-19T00:48:31.462Z,36.30
2019-01-19T00:52:13.849Z,36.30
2019-01-19T00:55:46.413Z,36.10
2019-01-19T00:59:12.759Z,36.10
2019-01-19T01:03:04.558Z,36.10
2019-01-19T01:06:45.879Z,36.00
2019-01-19T01:10:18.981Z,35.90
2019-01-19T01:13:53.817Z,36.00
2019-01-19T01:17:52.826Z,35.90
2019-01-19T01:21:16.703Z,35.80
2019-01-19T01:24:31.603Z,35.80
2019-01-19T01:28:21.254Z,35.70
2019-01-19T01:32:09.716Z,35.70
2019-01-19T01:36:04.718Z,35.70
2019-01-19T01:39:55.802Z,35.60
2019-01-19T01:43:46.959Z,35.60
2019-01-19T01:47:57.837Z,35.40
2019-01-19T01:52:14.737Z,35.20
2019-01-19T01:55:25.547Z,35.30
2019-01-19T01:59:15.383Z,35.20
2019-01-19T02:02:47.085Z,35.20
2019-01-19T02:06:01.038Z,35.10
2019-01-19T02:09:43.661Z,35.10
2019-01-19T02:13:32.147Z,35.10
2019-01-19T02:16:39.363Z,35.10
2019-01-19T02:20:07.233Z,35.10
2019-01-19T02:23:34.289Z,35.10
2019-01-19T02:27:29.150Z,35.10
2019-01-19T02:31:30.046Z,34.80
2019-01-19T02:35:11.309Z,35.10
2019-01-19T02:38:29.381Z,35.00
2019-01-19T02:42:17.122Z,34.60
2019-01-19T02:45:56.670Z,34.10
2019-01-19T02:49:41.618Z,34.10
2019-01-19T02:53:18.666Z,34.40
2019-01-19T02:56:57.450Z,34.40
2019-01-19T03:00:49.194Z,34.30
2019-01-19T03:04:23.205Z,34.30
2019-01-19T03:07:57.137Z,34.20
2019-01-19T03:11:30.496Z,34.00
2019-01-19T03:15:12.022Z,34.00
2019-01-19T03:18:56.883Z,34.10
2019-01-19T03:22:32.286Z,34.10
2019-01-19T03:25:53.452Z,34.10
2019-01-19T03:29:35.819Z,34.40
2019-01-19T03:33:03.231Z,33.80
2019-01-19T03:36:45.790Z,34.20
2019-01-19T03:40:41.375Z,34.00
2019-01-19T03:44:08.496Z,33.90
2019-01-19T03:47:58.225Z,34.10
2019-01-19T03:51:14.554Z,34.00
2019-01-19T03:54:49.554Z,33.90
2019-01-19T03:58:32.186Z,33.60
2019-01-19T04:02:14.695Z,33.80
2019-01-19T04:05:40.326Z,33.60
2019-01-19T04:09:52.095Z,33.80
2019-01-19T04:13:33.070Z,33.90
2019-01-19T04:17:13.674Z,33.80
2019-01-19T04:20:55.931Z,33.90
2019-01-19T04:24:14.947Z,33.90
2019-01-19T04:27:20.838Z,34.30
2019-01-19T04:30:26.431Z,33.80
2019-01-19T04:33:32.086Z,33.70
2019-01-19T04:36:39.633Z,33.60
2019-01-19T04:39:45.260Z,33.50
2019-01-19T04:42:51.108Z,33.70
2019-01-19T04:45:56.775Z,33.70
2019-01-19T04:49:02.621Z,33.60
2019-01-19T04:52:08.250Z,33.50
2019-01-19T04:55:13.906Z,33.30
2019-01-19T04:58:19.587Z,33.30
2019-01-19T05:01:25.234Z,33.20
2019-01-19T05:04:30.890Z,33.40
2019-01-19T05:07:36.525Z,33.50
2019-01-19T05:10:42.169Z,33.20
2019-01-19T05:13:47.849Z,33.40
2019-01-19T05:16:53.524Z,33.40
2019-01-19T05:19:59.153Z,33.30
2019-01-19T05:23:04.787Z,33.40
2019-01-19T05:26:10.434Z,33.40
2019-01-19T05:29:16.217Z,33.20
2019-01-19T05:32:22.177Z,33.30
2019-01-19T05:35:27.826Z,33.20
2019-01-19T05:38:35.222Z,33.40
2019-01-19T05:41:41.779Z,33.10
2019-01-19T05:44:47.346Z,33.10
2019-01-19T05:47:52.994Z,33.20
2019-01-19T05:50:58.650Z,33.30
2019-01-19T05:54:04.578Z,33.30
2019-01-19T05:57:10.238Z,33.40
2019-01-19T06:00:21.909Z,33.70
2019-01-19T06:03:27.709Z,33.00
2019-01-19T06:06:33.365Z,33.10
2019-01-19T06:09:39.022Z,32.90
2019-01-19T06:12:44.740Z,32.80
2019-01-19T06:15:50.432Z,32.80
2019-01-19T06:18:56.374Z,32.50
2019-01-19T06:22:03.370Z,32.60
2019-01-19T06:25:10.043Z,32.50
2019-01-19T06:28:15.798Z,32.50
2019-01-19T06:31:23.158Z,32.50
2019-01-19T06:34:28.846Z,32.30
2019-01-19T06:37:34.471Z,32.30
2019-01-19T06:40:40.130Z,32.30
2019-01-19T06:43:45.808Z,32.30
2019-01-19T06:46:51.566Z,32.30
2019-01-19T06:49:57.219Z,32.30
2019-01-19T06:53:03.079Z,32.20
2019-01-19T06:56:08.690Z,32.20
2019-01-19T06:59:17.549Z,32.20
2019-01-19T07:02:21.769Z,32.30
2019-01-19T07:05:27.563Z,32.20
2019-01-19T07:08:33.175Z,32.20
2019-01-19T07:11:39.030Z,32.10
2019-01-19T07:14:44.661Z,32.10
2019-01-19T07:17:50.388Z,32.00
2019-01-19T07:20:55.990Z,32.00
2019-01-19T07:24:01.757Z,32.10
2019-01-19T07:27:07.375Z,32.00
2019-01-19T07:30:17.270Z,32.00
2019-01-19T07:33:22.914Z,32.00
2019-01-19T07:36:28.595Z,32.00
2019-01-19T07:39:34.181Z,31.90
2019-01-19T07:42:40.822Z,32.00
2019-01-19T07:45:46.434Z,31.90
2019-01-19T07:48:51.973Z,31.90
2019-01-19T07:51:57.744Z,31.80
2019-01-19T07:55:03.514Z,31.80
2019-01-19T07:58:09.154Z,31.90
2019-01-19T08:01:14.902Z,31.90
2019-01-19T08:04:20.530Z,32.00
2019-01-19T08:07:26.322Z,31.90
2019-01-19T08:10:31.972Z,31.90
2019-01-19T08:13:37.953Z,32.00
2019-01-19T08:16:43.577Z,31.90
2019-01-19T08:19:49.193Z,31.70
2019-01-19T08:22:54.941Z,31.70
2019-01-19T08:26:00.599Z,31.70
2019-01-19T08:29:06.226Z,31.70
2019-01-19T08:32:11.909Z,31.70
2019-01-19T08:35:18.461Z,31.90
2019-01-19T08:38:24.138Z,32.00
2019-01-19T08:41:29.758Z,32.00
2019-01-19T08:44:35.440Z,32.10
2019-01-19T08:47:41.086Z,32.10
2019-01-19T08:50:48.418Z,32.00
2019-01-19T08:53:54.006Z,32.10
2019-01-19T08:56:59.658Z,32.10
2019-01-19T09:00:07.283Z,32.10
2019-01-19T09:03:12.938Z,32.20
2019-01-19T09:06:18.794Z,32.30
2019-01-19T09:09:24.458Z,32.30
2019-01-19T09:12:30.072Z,32.40
2019-01-19T09:15:35.927Z,32.30
2019-01-19T09:18:41.691Z,32.50
2019-01-19T09:21:47.366Z,32.50
2019-01-19T09:24:53.018Z,32.50
2019-01-19T09:27:58.650Z,32.50
2019-01-19T09:31:04.322Z,32.50
2019-01-19T09:34:09.978Z,32.60
2019-01-19T09:37:15.629Z,32.70
2019-01-19T09:40:21.254Z,32.70
2019-01-19T09:43:26.906Z,32.70
2019-01-19T09:46:32.591Z,32.70
2019-01-19T09:49:38.237Z,32.80
2019-01-19T09:52:43.898Z,32.80
2019-01-19T09:55:49.515Z,33.00
2019-01-19T09:58:55.176Z,33.00
2019-01-19T10:02:00.851Z,33.10
2019-01-19T10:05:09.850Z,33.10
2019-01-19T10:08:15.510Z,33.20
2019-01-19T10:11:21.166Z,33.20
2019-01-19T10:14:26.846Z,33.20
2019-01-19T10:17:32.498Z,33.30
2019-01-19T10:20:38.214Z,33.40
2019-01-19T10:23:43.881Z,33.40
2019-01-19T10:26:49.661Z,33.50
2019-01-19T10:29:55.413Z,33.50
2019-01-19T10:33:01.173Z,33.50
2019-01-19T10:36:06.790Z,33.60
2019-01-19T10:39:12.450Z,33.70
2019-01-19T10:42:18.231Z,33.60
2019-01-19T10:45:25.723Z,33.60
2019-01-19T10:48:31.483Z,34.40
2019-01-19T10:51:37.133Z,33.60
2019-01-19T10:54:42.757Z,33.60
2019-01-19T10:57:48.574Z,33.60
2019-01-19T11:00:54.298Z,33.60
2019-01-19T11:04:01.504Z,33.60
2019-01-19T11:07:07.337Z,33.60
2019-01-19T11:10:15.969Z,33.70
2019-01-19T11:13:21.730Z,33.50
2019-01-19T11:16:27.415Z,33.70
2019-01-19T11:19:33.026Z,33.60
2019-01-19T11:22:38.709Z,34.10
2019-01-19T11:25:44.333Z,32.50
2019-01-19T11:28:50.979Z,37.40
2019-01-19T11:31:56.661Z,38.50
2019-01-19T11:35:02.669Z,38.80
2019-01-19T11:38:12.149Z,38.90
2019-01-19T11:41:15.602Z,39.40
2019-01-19T11:44:21.190Z,39.30
2019-01-19T11:47:27.880Z,39.20
2019-01-19T11:50:33.546Z,39.00
2019-01-19T11:53:39.214Z,39.00
2019-01-19T11:56:44.950Z,38.70
2019-01-19T11:59:50.721Z,38.70
2019-01-19T12:02:56.566Z,38.60
2019-01-19T12:06:03.798Z,38.50
2019-01-19T12:09:09.482Z,38.50
2019-01-19T12:12:15.278Z,38.50
2019-01-19T12:15:21.022Z,38.30
2019-01-19T12:18:27.609Z,38.10
2019-01-19T12:21:33.261Z,38.00
2019-01-19T12:24:38.798Z,37.90
2019-01-19T12:27:44.418Z,37.90
2019-01-19T12:30:51.487Z,37.80
2019-01-19T12:33:57.299Z,37.70
2019-01-19T12:37:03.806Z,37.60
2019-01-19T12:40:10.922Z,37.50
2019-01-19T12:43:21.488Z,37.50
2019-01-19T12:46:27.174Z,38.30
2019-01-19T12:49:32.976Z,36.00
2019-01-19T12:52:40.154Z,37.60
2019-01-19T12:55:47.444Z,38.00
2019-01-19T12:58:53.070Z,37.90
2019-01-19T13:01:58.718Z,38.00
2019-01-19T13:05:04.879Z,37.80
2019-01-19T13:08:12.757Z,37.80
2019-01-19T13:11:46.914Z,37.70
2019-01-19T13:15:32.224Z,37.60
2019-01-19T13:19:04.943Z,37.50
2019-01-19T13:22:56.102Z,37.30
2019-01-19T13:26:23.558Z,37.20
2019-01-19T13:30:16.494Z,37.10
2019-01-19T13:33:56.995Z,37.00
2019-01-19T13:37:58.214Z,37.00
2019-01-19T13:41:47.438Z,36.90
2019-01-19T13:45:19.091Z,36.70
2019-01-19T13:49:01.194Z,36.50
2019-01-19T13:52:59.750Z,36.50
2019-01-19T13:56:46.606Z,36.40
2019-01-19T14:00:23.081Z,36.20
2019-01-19T14:03:57.538Z,36.00
2019-01-19T14:07:49.755Z,35.70
2019-01-19T14:11:45.065Z,35.50
2019-01-19T14:15:26.294Z,35.30
2019-01-19T14:18:52.878Z,35.50
2019-01-19T14:22:53.650Z,35.70
2019-01-19T14:26:33.605Z,35.70
2019-01-19T14:30:18.996Z,35.60
2019-01-19T14:33:57.270Z,35.40
2019-01-19T14:37:34.815Z,35.30
2019-01-19T14:41:22.974Z,35.10
2019-01-19T14:45:30.869Z,35.20
2019-01-19T14:49:11.405Z,35.10
2019-01-19T14:52:58.222Z,34.90
2019-01-19T14:56:55.895Z,34.80
2019-01-19T15:00:56.539Z,34.80
2019-01-19T15:04:53.697Z,34.80
2019-01-19T15:08:53.117Z,34.70
2019-01-19T15:12:45.422Z,35.00
2019-01-19T15:16:30.335Z,34.70
2019-01-19T15:20:19.675Z,34.70
2019-01-19T15:24:11.178Z,34.60
2019-01-19T15:28:15.878Z,34.70
2019-01-19T15:31:35.459Z,34.60
2019-01-19T15:35:28.010Z,34.50
2019-01-19T15:39:11.012Z,34.40
2019-01-19T15:42:48.538Z,34.60
2019-01-19T15:46:17.538Z,34.40
2019-01-19T15:50:14.191Z,34.40
2019-01-19T15:53:32.946Z,34.40
2019-01-19T15:57:16.835Z,34.30
2019-01-19T16:01:03.397Z,34.30
2019-01-19T16:05:08.142Z,34.20
2019-01-19T16:08:23.224Z,34.20
2019-01-19T16:11:44.945Z,34.30
2019-01-19T16:15:16.401Z,34.10
2019-01-19T16:18:36.249Z,34.20
2019-01-19T16:22:23.882Z,34.10
2019-01-19T16:26:04.353Z,34.00
2019-01-19T16:29:20.687Z,34.00
2019-01-19T16:32:42.942Z,33.90
2019-01-19T16:36:38.611Z,33.70
2019-01-19T16:40:33.777Z,33.70
2019-01-19T16:44:04.594Z,33.60
2019-01-19T16:47:40.454Z,33.50
2019-01-19T16:51:30.003Z,33.50
2019-01-19T16:54:54.455Z,33.50
2019-01-19T16:58:41.077Z,33.40
2019-01-19T17:02:30.553Z,33.40
2019-01-19T17:05:55.538Z,33.30
2019-01-19T17:09:33.077Z,33.20
2019-01-19T17:13:02.575Z,33.20
2019-01-19T17:16:23.374Z,32.70
2019-01-19T17:20:25.014Z,32.50
2019-01-19T17:24:03.780Z,33.40
2019-01-19T17:27:49.090Z,33.40
2019-01-19T17:31:26.770Z,33.30
2019-01-19T17:35:01.186Z,32.90
2019-01-19T17:38:16.362Z,32.60
2019-01-19T17:42:18.130Z,32.30
2019-01-19T17:45:37.914Z,32.30
2019-01-19T17:49:32.323Z,32.10
2019-01-19T17:53:15.751Z,32.00
2019-01-19T17:57:01.248Z,31.80
2019-01-19T18:00:39.559Z,31.60
2019-01-19T18:04:02.926Z,31.50
2019-01-19T18:07:45.131Z,31.50
2019-01-19T18:11:27.342Z,31.50
2019-01-19T18:15:15.798Z,32.20
2019-01-19T18:19:17.469Z,31.50
2019-01-19T18:22:46.766Z,31.70
2019-01-19T18:26:39.224Z,31.90
2019-01-19T18:30:21.757Z,32.00
2019-01-19T18:33:48.389Z,32.00
2019-01-19T18:37:39.605Z,31.90
2019-01-19T18:41:56.868Z,31.90
2019-01-19T18:45:47.036Z,31.70
2019-01-19T18:49:20.059Z,31.60
2019-01-19T18:53:05.213Z,31.50
2019-01-19T18:56:53.469Z,31.40
2019-01-19T19:00:10.106Z,31.30
2019-01-19T19:04:01.325Z,31.30
2019-01-19T19:07:19.946Z,31.10
2019-01-19T19:11:10.319Z,31.20
2019-01-19T19:15:19.554Z,31.10
2019-01-19T19:19:11.021Z,31.20
2019-01-19T19:23:00.636Z,31.30
2019-01-19T19:26:37.685Z,31.30
2019-01-19T19:30:08.533Z,31.30
2019-01-19T19:33:54.538Z,31.30
2019-01-19T19:37:17.370Z,31.20
2019-01-19T19:41:03.182Z,31.10
2019-01-19T19:44:51.914Z,31.10
2019-01-19T19:48:14.290Z,30.30
2019-01-19T19:51:57.563Z,30.10
2019-01-19T19:55:01.438Z,30.50
2019-01-19T19:58:07.097Z,30.20
2019-01-19T20:01:12.776Z,30.40
2019-01-19T20:04:18.645Z,30.60
2019-01-19T20:07:24.355Z,30.80
2019-01-19T20:10:30.225Z,31.70
2019-01-19T20:13:35.865Z,31.00
2019-01-19T20:16:41.523Z,31.00
2019-01-19T20:19:47.223Z,31.00
2019-01-19T20:22:52.878Z,30.90
2019-01-19T20:25:58.527Z,30.60
2019-01-19T20:29:04.287Z,30.50
2019-01-19T20:32:10.146Z,30.40
2019-01-19T20:35:16.015Z,30.00
2019-01-19T20:38:21.657Z,30.00
2019-01-19T20:41:29.077Z,29.80
2019-01-19T20:44:34.678Z,30.20
2019-01-19T20:47:40.242Z,30.60
2019-01-19T20:50:45.899Z,30.40
2019-01-19T20:53:51.435Z,30.40
2019-01-19T20:56:57.107Z,30.80
2019-01-19T21:00:03.437Z,31.00
2019-01-19T21:03:09.205Z,31.10
2019-01-19T21:06:14.986Z,31.30
2019-01-19T21:09:20.610Z,31.70
2019-01-19T21:12:26.399Z,32.00
2019-01-19T21:15:32.047Z,31.70
2019-01-19T21:18:37.776Z,31.60
2019-01-19T21:21:44.850Z,32.40
2019-01-19T21:24:50.659Z,31.60
2019-01-19T21:27:56.290Z,31.50
2019-01-19T21:31:03.128Z,31.30
2019-01-19T21:34:08.829Z,31.00
2019-01-19T21:37:14.498Z,30.80
2019-01-19T21:40:20.250Z,30.80
2019-01-19T21:43:25.902Z,30.70
2019-01-19T21:46:31.614Z,30.60
2019-01-19T21:49:37.191Z,30.50
2019-01-19T21:52:42.918Z,30.30
2019-01-19T21:55:48.671Z,30.30
2019-01-19T21:58:54.358Z,30.20
2019-01-19T22:02:00.011Z,30.10
2019-01-19T22:05:06.286Z,30.10
2019-01-19T22:08:11.906Z,30.00
2019-01-19T22:11:17.555Z,30.00
2019-01-19T22:14:23.405Z,29.90
2019-01-19T22:17:29.602Z,29.90
2019-01-19T22:20:35.101Z,29.80
2019-01-19T22:23:40.806Z,29.70
2019-01-19T22:26:49.540Z,29.70
2019-01-19T22:29:55.258Z,29.60
2019-01-19T22:33:01.246Z,29.60
2019-01-19T22:36:08.266Z,29.50
2019-01-19T22:39:13.907Z,29.50
2019-01-19T22:42:19.550Z,29.40
2019-01-19T22:45:26.278Z,29.30
2019-01-19T22:48:32.105Z,29.30
2019-01-19T22:51:37.789Z,29.30
2019-01-19T22:54:43.621Z,29.20
2019-01-19T22:57:49.330Z,29.20
2019-01-19T23:01:22.109Z,29.10
2019-01-19T23:04:27.775Z,29.10
2019-01-19T23:07:33.556Z,29.10
2019-01-19T23:10:39.183Z,29.10
2019-01-19T23:13:44.889Z,29.00
2019-01-19T23:16:50.586Z,28.90
2019-01-19T23:19:56.358Z,28.90
2019-01-19T23:23:03.802Z,29.60
2019-01-19T23:26:12.817Z,30.70
2019-01-19T23:29:18.374Z,31.50
2019-01-19T23:32:24.314Z,32.00
2019-01-19T23:35:30.038Z,32.40
2019-01-19T23:38:35.717Z,32.80
2019-01-19T23:41:41.343Z,33.00
2019-01-19T23:44:47.033Z,33.40
2019-01-19T23:47:52.645Z,34.00
2019-01-19T23:50:58.312Z,34.20
2019-01-19T23:54:04.238Z,34.50
2019-01-19T23:57:09.769Z,34.80
